Time;durP1;ratioP1;P1;durP2;ratioP2;P2;SDS_P1;SDS_P2;PMS_P1;PMS_P2;Temp;Humidity;BMP_temperature;BMP_pressure;BME280_temperature;BME280_humidity;BME280_pressure;Samples;Min_cycle;Max_cycle;Signal;HPM_P1;HPM_P2
2022/07/04 00:01:40;;;;;;;6.53;4.78;;;;;;;12.47;100.00;101890.06;10286494;28;20047;-66
2022/07/04 00:06:40;;;;;;;10.25;5.72;;;;;;;12.45;100.00;101883.94;10292199;28;20043;-66
2022/07/04 00:11:41;;;;;;;6.43;4.90;;;;;;;12.49;100.00;101882.38;10355076;28;20049;-65
2022/07/04 00:16:41;;;;;;;9.38;5.80;;;;;;;12.48;100.00;101881.50;10359779;28;20033;-66
2022/07/04 00:21:42;;;;;;;7.05;5.50;;;;;;;12.44;100.00;101874.81;10326901;28;20045;-66
2022/07/04 00:26:43;;;;;;;10.80;5.28;;;;;;;12.41;100.00;101874.44;10321429;28;20064;-66
2022/07/04 00:31:43;;;;;;;13.07;5.30;;;;;;;12.38;100.00;101866.63;10326381;28;20058;-66
2022/07/04 00:36:44;;;;;;;11.80;4.80;;;;;;;12.34;100.00;101868.19;10326724;28;20042;-65
2022/07/04 00:41:44;;;;;;;8.07;5.25;;;;;;;12.30;100.00;101863.19;10326864;28;20031;-66
2022/07/04 00:46:45;;;;;;;13.25;7.47;;;;;;;12.24;100.00;101868.84;10327160;28;20077;-65
2022/07/04 00:51:46;;;;;;;14.70;6.35;;;;;;;12.21;100.00;101875.66;10328774;28;20045;-66
2022/07/04 00:56:46;;;;;;;11.15;5.45;;;;;;;12.15;100.00;101876.63;10327062;28;20062;-63
2022/07/04 01:01:47;;;;;;;10.30;5.18;;;;;;;12.11;100.00;101876.28;10399084;28;20042;-65
2022/07/04 01:06:47;;;;;;;13.93;5.82;;;;;;;12.09;100.00;101874.81;10329464;28;20390;-66
2022/07/04 01:11:51;;;;;;;6.43;4.97;;;;;;;11.97;100.00;101874.84;10327496;28;20394;-66
2022/07/04 01:16:51;;;;;;;10.38;5.40;;;;;;;11.98;100.00;101886.72;10328399;28;20034;-66
2022/07/04 01:21:52;;;;;;;8.18;5.63;;;;;;;11.97;100.00;101893.28;10358745;28;20031;-65
2022/07/04 01:26:52;;;;;;;10.68;6.18;;;;;;;11.85;100.00;101882.22;10361242;28;20041;-65
2022/07/04 01:31:53;;;;;;;9.60;5.00;;;;;;;11.87;100.00;101883.66;10368445;28;20033;-64
2022/07/04 01:36:54;;;;;;;10.60;6.47;;;;;;;11.57;100.00;101844.28;10368369;28;20044;-65
2022/07/04 01:41:55;;;;;;;11.27;7.30;;;;;;;11.77;100.00;101890.84;10368849;28;20045;-65
2022/07/04 01:46:55;;;;;;;12.63;8.05;;;;;;;11.69;100.00;101884.59;10339608;28;20711;-65
2022/07/04 01:51:56;;;;;;;14.77;7.60;;;;;;;11.63;100.00;101879.19;10326185;28;20050;-63
2022/07/04 01:56:56;;;;;;;10.93;6.50;;;;;;;11.49;100.00;101857.34;10327146;28;20050;-65
2022/07/04 02:01:56;;;;;;;11.77;6.72;;;;;;;11.51;100.00;101881.91;10327328;28;20065;-64
2022/07/04 02:06:59;;;;;;;15.70;8.25;;;;;;;11.44;100.00;101875.66;10326459;28;20038;-64
2022/07/04 02:17:19;;;;;;;15.30;8.55;;;;;;;11.34;100.00;101859.69;10321291;28;20035;-65
2022/07/04 02:22:19;;;;;;;17.67;9.48;;;;;;;11.30;100.00;101858.47;10282510;28;20046;-64
2022/07/04 02:27:20;;;;;;;15.30;9.10;;;;;;;11.26;100.00;101862.78;10339273;28;20045;-64
2022/07/04 02:32:20;;;;;;;16.10;8.93;;;;;;;11.21;100.00;101863.50;10326255;28;20045;-64
2022/07/04 02:37:21;;;;;;;11.07;7.63;;;;;;;11.16;100.00;101879.03;10325154;28;20035;-65
2022/07/04 02:42:21;;;;;;;10.23;7.65;;;;;;;11.14;100.00;101870.16;10358608;28;20042;-65
2022/07/04 02:47:22;;;;;;;16.15;9.32;;;;;;;11.04;100.00;101860.56;10346283;28;20049;-65
2022/07/04 02:52:22;;;;;;;10.48;7.38;;;;;;;11.09;100.00;101862.59;10354431;28;20030;-65
2022/07/04 02:57:23;;;;;;;12.82;6.30;;;;;;;11.05;100.00;101858.63;10324557;28;20038;-63
2022/07/04 03:02:23;;;;;;;13.07;6.93;;;;;;;10.99;100.00;101860.41;10325583;28;20080;-64
2022/07/04 03:07:24;;;;;;;12.02;6.82;;;;;;;10.98;100.00;101855.97;10354881;28;20502;-63
2022/07/04 03:12:24;;;;;;;13.77;7.47;;;;;;;10.97;100.00;101854.28;10324593;28;20619;-64
2022/07/04 03:17:25;;;;;;;9.63;6.22;;;;;;;10.90;100.00;101851.63;10326753;28;20130;-64
2022/07/04 03:22:26;;;;;;;11.52;7.20;;;;;;;10.92;100.00;101862.41;10392393;28;20030;-64
2022/07/04 03:27:26;;;;;;;12.10;6.90;;;;;;;10.93;100.00;101860.50;10364629;28;20046;-64
2022/07/04 03:32:27;;;;;;;7.50;5.95;;;;;;;10.94;100.00;101860.28;10365711;28;20084;-65
2022/07/04 03:37:27;;;;;;;12.75;7.25;;;;;;;10.99;100.00;101857.66;10370979;28;20064;-65
2022/07/04 03:42:28;;;;;;;10.75;7.65;;;;;;;11.06;100.00;101869.44;10370888;28;20037;-65
2022/07/04 03:47:28;;;;;;;10.98;8.07;;;;;;;11.13;100.00;101879.53;10371103;28;20446;-64
2022/07/04 03:52:28;;;;;;;11.88;8.13;;;;;;;11.14;100.00;101882.06;10371767;28;20441;-63
2022/07/04 03:57:29;;;;;;;12.90;8.23;;;;;;;11.16;100.00;101887.31;10369901;28;20509;-65
2022/07/04 04:02:29;;;;;;;11.80;7.57;;;;;;;11.13;100.00;101869.34;10368614;28;20510;-63
2022/07/04 04:07:30;;;;;;;11.45;8.77;;;;;;;11.25;100.00;101889.50;10345009;28;20392;-65
2022/07/04 04:12:30;;;;;;;10.52;8.70;;;;;;;11.31;100.00;101879.47;10330319;28;20584;-64
2022/07/04 04:17:31;;;;;;;12.30;8.95;;;;;;;11.30;100.00;101866.75;10332799;28;20042;-64
2022/07/04 04:22:31;;;;;;;17.60;9.25;;;;;;;11.44;100.00;101878.44;10368561;28;20037;-65
2022/07/04 04:27:32;;;;;;;11.73;9.50;;;;;;;11.52;100.00;101886.38;10370304;28;20058;-65
2022/07/04 04:32:32;;;;;;;14.23;9.57;;;;;;;11.63;100.00;101884.69;10380441;28;20101;-65
2022/07/04 04:37:33;;;;;;;12.55;9.52;;;;;;;11.72;100.00;101888.81;10328660;28;20039;-63
2022/07/04 04:42:33;;;;;;;15.07;9.45;;;;;;;11.86;100.00;101887.47;10360313;28;20046;-66
2022/07/04 04:47:34;;;;;;;13.88;10.25;;;;;;;11.98;100.00;101886.72;10327665;28;20055;-65
2022/07/04 04:52:34;;;;;;;16.05;9.73;;;;;;;12.10;100.00;101884.78;10328408;28;20065;-66
2022/07/04 04:57:35;;;;;;;13.77;9.98;;;;;;;12.31;100.00;101884.16;10329632;28;20045;-65
2022/07/04 05:02:35;;;;;;;13.23;9.80;;;;;;;12.51;100.00;101882.97;10363061;28;20105;-66
2022/07/04 05:07:36;;;;;;;13.80;9.65;;;;;;;12.64;100.00;101877.16;10366650;28;20049;-66
2022/07/04 05:12:36;;;;;;;15.43;9.63;;;;;;;12.83;100.00;101888.88;10383159;28;20042;-66
2022/07/04 05:17:36;;;;;;;18.15;9.55;;;;;;;12.95;100.00;101883.31;10360881;28;20042;-66
2022/07/04 05:22:37;;;;;;;13.85;8.48;;;;;;;13.06;100.00;101876.06;10328124;28;20104;-66
2022/07/04 05:27:38;;;;;;;15.75;8.10;;;;;;;13.21;100.00;101884.69;10325508;28;20038;-65
2022/07/04 05:32:39;;;;;;;12.85;9.10;;;;;;;13.36;100.00;101892.44;10328237;28;20045;-66
2022/07/04 05:37:40;;;;;;;15.40;9.10;;;;;;;13.55;100.00;101889.47;10326678;28;20042;-66
2022/07/04 05:42:40;;;;;;;20.48;9.20;;;;;;;13.75;100.00;101894.53;10360992;28;20042;-66
2022/07/04 05:47:41;;;;;;;17.42;9.60;;;;;;;13.97;100.00;101891.81;10360497;28;20498;-66
2022/07/04 05:52:41;;;;;;;17.40;9.13;;;;;;;14.23;100.00;101910.50;10339134;28;20107;-66
2022/07/04 05:57:42;;;;;;;14.98;9.00;;;;;;;14.49;100.00;101894.25;10357002;28;20049;-65
2022/07/04 06:02:43;;;;;;;12.70;7.90;;;;;;;14.81;100.00;101905.53;10326384;28;20107;-65
2022/07/04 06:07:43;;;;;;;12.57;7.95;;;;;;;15.11;100.00;101896.75;10325300;28;20042;-62
2022/07/04 06:12:44;;;;;;;11.93;6.85;;;;;;;15.42;100.00;101894.31;10326328;28;20049;-66
2022/07/04 06:17:44;;;;;;;15.15;6.90;;;;;;;15.81;100.00;101882.19;10325885;28;20093;-65
2022/07/04 06:22:47;;;;;;;8.10;6.25;;;;;;;16.03;100.00;101893.22;10325774;28;20034;-66
2022/07/04 06:27:49;;;;;;;9.38;6.05;;;;;;;16.49;100.00;101890.72;10326993;28;20072;-65
2022/07/04 06:32:50;;;;;;;10.00;6.63;;;;;;;16.70;100.00;101889.72;10368016;28;20449;-65
2022/07/04 06:37:51;;;;;;;7.10;5.43;;;;;;;17.04;100.00;101900.47;10376200;28;20030;-65
2022/07/04 06:42:51;;;;;;;10.52;5.20;;;;;;;17.34;100.00;101893.28;10375144;28;20049;-66
2022/07/04 06:47:52;;;;;;;9.00;5.10;;;;;;;17.61;100.00;101893.09;10364042;28;20045;-66
2022/07/04 06:52:52;;;;;;;7.90;4.60;;;;;;;17.61;100.00;101893.09;10364309;28;20504;-65
2022/07/04 06:57:53;;;;;;;8.02;4.22;;;;;;;17.70;100.00;101891.41;10365456;28;20053;-65
2022/07/04 07:02:53;;;;;;;8.23;5.00;;;;;;;17.80;100.00;101884.16;10395783;28;20038;-66
2022/07/04 07:07:54;;;;;;;13.05;3.72;;;;;;;17.90;100.00;101876.69;10363958;28;20088;-65
2022/07/04 07:12:54;;;;;;;8.43;2.90;;;;;;;18.10;100.00;101889.72;10398250;28;20136;-65
2022/07/04 07:17:55;;;;;;;6.15;2.65;;;;;;;18.07;100.00;101875.56;10389399;28;20045;-66
2022/07/04 07:22:55;;;;;;;6.13;3.22;;;;;;;18.37;100.00;101883.00;10387869;28;20049;-65
2022/07/04 07:27:56;;;;;;;10.60;4.05;;;;;;;18.66;100.00;101877.63;10387229;28;20049;-65
2022/07/04 07:32:56;;;;;;;8.15;2.40;;;;;;;18.75;100.00;101878.72;10384028;28;20046;-66
2022/07/04 07:37:57;;;;;;;7.30;2.72;;;;;;;18.94;100.00;101864.16;10385805;28;20034;-65
2022/07/04 07:42:57;;;;;;;11.30;2.90;;;;;;;18.59;100.00;101860.38;10386535;28;20041;-65
2022/07/04 07:47:58;;;;;;;8.07;3.10;;;;;;;18.94;100.00;101870.56;10390074;28;20034;-66
2022/07/04 07:52:58;;;;;;;4.90;2.45;;;;;;;19.43;100.00;101866.09;10389904;28;20113;-66
2022/07/04 07:57:59;;;;;;;5.65;2.08;;;;;;;19.36;100.00;101863.59;10389394;28;20052;-66
2022/07/04 08:08:22;;;;;;;11.50;2.75;;;;;;;19.83;100.00;101864.13;10376637;28;20062;-66
2022/07/04 08:13:22;;;;;;;7.82;2.00;;;;;;;19.48;100.00;101857.66;10371788;28;20125;-67
2022/07/04 08:18:23;;;;;;;5.18;2.60;;;;;;;19.68;100.00;101861.44;10371768;28;20042;-66
2022/07/04 08:23:23;;;;;;;10.77;3.10;;;;;;;19.88;100.00;101854.84;10329233;28;20510;-64
2022/07/04 08:28:23;;;;;;;11.20;3.03;;;;;;;19.99;100.00;101849.97;10331592;28;21001;-65
2022/07/04 08:33:24;;;;;;;8.27;2.33;;;;;;;19.71;100.00;101860.88;10330400;28;20068;-65
2022/07/04 08:38:24;;;;;;;7.65;1.85;;;;;;;19.61;100.00;101860.91;10330491;28;20034;-66
2022/07/04 08:43:26;;;;;;;9.75;1.52;;;;;;;20.60;100.00;101852.16;10368186;28;20034;-65
2022/07/04 08:48:27;;;;;;;11.07;2.53;;;;;;;20.48;100.00;101846.94;10370422;28;20038;-65
2022/07/04 08:53:28;;;;;;;6.22;2.13;;;;;;;20.47;100.00;101847.25;10386038;28;20038;-66
2022/07/04 08:58:33;;;;;;;11.52;2.60;;;;;;;19.91;100.00;101852.31;10400854;28;20068;-66
2022/07/04 09:03:33;;;;;;;5.55;1.48;;;;;;;20.45;100.00;101852.31;10368616;28;20046;-65
2022/07/04 09:08:34;;;;;;;4.78;1.13;;;;;;;21.10;100.00;101841.38;10368949;28;20034;-66
2022/07/04 09:13:34;;;;;;;4.93;1.48;;;;;;;21.28;100.00;101847.31;10409387;28;20034;-65
2022/07/04 09:18:35;;;;;;;9.00;1.50;;;;;;;21.07;100.00;101841.19;10328353;28;20491;-66
2022/07/04 09:23:39;;;;;;;3.58;2.00;;;;;;;20.59;100.00;101850.50;10329779;28;20060;-66
2022/07/04 09:29:00;;;;;;;5.60;1.50;;;;;;;19.92;100.00;101859.53;10361340;28;20050;-66
2022/07/04 09:34:04;;;;;;;3.10;1.25;;;;;;;19.50;100.00;101868.53;10379716;28;20040;-65
2022/07/04 09:39:20;;;;;;;5.80;1.67;;;;;;;19.11;100.00;101877.72;10377287;28;20272;-67
2022/07/04 09:44:21;;;;;;;5.50;1.08;;;;;;;19.27;100.00;101870.94;10382501;28;20055;-65
2022/07/04 09:49:21;;;;;;;3.90;0.88;;;;;;;19.43;100.00;101871.69;10383703;28;20042;-64
2022/07/04 09:54:31;;;;;;;3.08;0.85;;;;;;;20.26;100.00;101866.22;10380498;28;20045;-65
2022/07/04 09:59:32;;;;;;;3.33;1.02;;;;;;;20.57;100.00;101838.75;10365703;28;20058;-66
2022/07/04 10:04:45;;;;;;;3.78;0.88;;;;;;;21.49;100.00;101850.66;10367532;28;20033;-66
2022/07/04 10:09:45;;;;;;;1.30;0.80;;;;;;;21.03;97.95;101857.75;10347179;28;20046;-65
2022/07/04 10:14:46;;;;;;;3.20;0.85;;;;;;;19.88;100.00;101855.66;10327010;28;20030;-65
2022/07/04 10:19:46;;;;;;;4.82;0.98;;;;;;;19.62;100.00;101857.00;10340395;28;20050;-65
2022/07/04 10:24:47;;;;;;;2.67;0.95;;;;;;;19.53;100.00;101877.19;10320783;28;20048;-65
2022/07/04 10:29:48;;;;;;;2.85;0.88;;;;;;;19.62;100.00;101868.19;10323749;28;20050;-65
2022/07/04 10:34:49;;;;;;;4.18;0.80;;;;;;;20.80;100.00;101847.44;10325151;28;20105;-64
2022/07/04 10:39:49;;;;;;;3.45;0.90;;;;;;;21.77;98.79;101778.72;10325286;28;20374;-65
2022/07/04 10:44:50;;;;;;;4.30;1.27;;;;;;;22.84;93.54;101822.59;10344139;28;20093;-65
2022/07/04 10:49:53;;;;;;;1.30;0.68;;;;;;;23.01;89.32;101831.22;10385854;28;20034;-65
2022/07/04 10:54:54;;;;;;;1.85;0.88;;;;;;;22.19;86.22;101816.03;10365386;28;20045;-66
2022/07/04 10:59:57;;;;;;;1.73;0.77;;;;;;;22.15;88.70;101815.00;10379829;28;20042;-66
2022/07/04 11:05:01;;;;;;;1.60;0.70;;;;;;;22.62;83.71;101809.34;10365229;28;20034;-65
2022/07/04 11:10:16;;;;;;;1.70;0.63;;;;;;;23.12;79.02;101772.84;10364319;28;20121;-65
2022/07/04 11:15:17;;;;;;;4.20;0.82;;;;;;;23.56;77.65;101791.69;10340822;28;20532;-65
2022/07/04 11:20:18;;;;;;;1.80;1.00;;;;;;;23.89;76.14;101790.56;10373154;28;20572;-63
2022/07/04 11:25:18;;;;;;;1.52;0.80;;;;;;;23.94;73.37;101771.56;10378319;28;20410;-65
2022/07/04 11:30:19;;;;;;;5.05;0.93;;;;;;;23.74;71.21;101774.91;10401286;28;20041;-67
2022/07/04 11:35:20;;;;;;;2.58;0.80;;;;;;;23.85;73.28;101781.94;10383760;28;20047;-65
2022/07/04 11:45:39;;;;;;;1.13;0.80;;;;;;;23.37;76.54;101793.84;10336563;28;20038;-69
2022/07/04 11:50:40;;;;;;;2.05;0.88;;;;;;;23.56;74.05;101777.63;10364444;28;20029;-65
2022/07/04 11:55:55;;;;;;;3.78;0.95;;;;;;;24.16;71.74;101769.84;10353050;28;20042;-65
2022/07/04 12:00:56;;;;;;;1.63;0.80;;;;;;;23.86;74.79;101782.78;10329946;28;20464;-65
2022/07/04 12:06:03;;;;;;;4.25;0.80;;;;;;;23.77;77.43;101802.41;10332368;28;20038;-65
2022/07/04 12:11:03;;;;;;;3.30;1.15;;;;;;;22.40;76.07;101793.22;10331200;28;20054;-65
2022/07/04 12:16:04;;;;;;;3.33;0.98;;;;;;;23.08;73.23;101764.19;10330586;28;20410;-67
2022/07/04 12:21:12;;;;;;;1.63;0.90;;;;;;;24.52;70.00;101746.31;10382347;28;20042;-66
2022/07/04 12:26:12;;;;;;;2.22;0.70;;;;;;;24.71;68.66;101751.63;10371612;28;20084;-66
2022/07/04 12:31:13;;;;;;;2.55;0.85;;;;;;;24.41;67.93;101750.53;10352728;28;20042;-67
2022/07/04 12:36:14;;;;;;;4.45;1.00;;;;;;;25.77;70.01;101754.03;10367876;28;20105;-66
2022/07/04 12:41:19;;;;;;;1.00;0.60;;;;;;;26.31;63.32;101717.59;10328049;28;20517;-65
2022/07/04 12:46:30;;;;;;;2.03;1.42;;;;;;;25.37;64.83;101737.38;10383890;28;20049;-66
2022/07/04 12:51:31;;;;;;;4.97;1.45;;;;;;;25.75;63.46;101699.94;10361246;28;20050;-66
2022/07/04 12:56:39;;;;;;;2.00;0.70;;;;;;;26.40;61.17;101719.56;10368126;28;20037;-66
2022/07/04 13:01:43;;;;;;;3.97;0.70;;;;;;;26.54;59.79;101720.13;10371381;28;20042;-66
2022/07/04 13:06:43;;;;;;;3.58;1.10;;;;;;;26.05;58.90;101725.41;10401741;28;20065;-67
2022/07/04 13:17:03;;;;;;;6.05;0.98;;;;;;;24.88;60.93;101733.91;10354236;28;20042;-66
2022/07/04 13:22:03;;;;;;;5.80;0.60;;;;;;;25.76;61.42;101743.94;10328116;28;20054;-65
2022/07/04 13:27:05;;;;;;;2.85;0.70;;;;;;;26.42;56.64;101728.50;10382130;28;20084;-66
2022/07/04 13:32:06;;;;;;;1.35;0.50;;;;;;;26.97;53.80;101730.28;10365746;28;20038;-67
2022/07/04 13:37:07;;;;;;;1.23;0.70;;;;;;;27.46;50.15;101716.38;10366987;28;20038;-67
2022/07/04 13:42:07;;;;;;;2.13;1.00;;;;;;;27.57;53.34;101740.19;10365794;28;20065;-67
2022/07/04 13:47:07;;;;;;;4.40;0.70;;;;;;;27.02;51.87;101729.25;10364780;28;20037;-69
2022/07/04 13:52:08;;;;;;;3.47;0.93;;;;;;;25.27;56.08;101751.81;10364826;28;20042;-66
2022/07/04 13:57:08;;;;;;;2.92;0.70;;;;;;;25.22;55.47;101749.16;10365137;28;20095;-66
2022/07/04 14:02:09;;;;;;;2.92;0.63;;;;;;;25.20;59.48;101779.63;10366319;28;20038;-66
2022/07/04 14:07:09;;;;;;;1.05;0.50;;;;;;;26.01;56.17;101763.94;10365510;28;20324;-73
2022/07/04 14:12:10;;;;;;;2.90;0.77;;;;;;;25.49;56.51;101777.00;10356115;28;20046;-65
2022/07/04 14:17:10;;;;;;;3.85;0.80;;;;;;;24.43;58.87;101773.56;10378785;28;20042;-67
2022/07/04 14:22:11;;;;;;;3.45;0.70;;;;;;;24.01;62.94;101789.97;10376135;28;20045;-68
2022/07/04 14:27:11;;;;;;;3.42;0.63;;;;;;;24.16;61.06;101786.72;10392528;28;20060;-65
2022/07/04 14:32:12;;;;;;;1.88;0.68;;;;;;;23.70;59.50;101782.31;10382561;28;20103;-67
2022/07/04 14:37:12;;;;;;;3.80;0.75;;;;;;;24.69;58.95;101785.75;10366171;28;20034;-67
2022/07/04 14:42:13;;;;;;;1.70;0.47;;;;;;;24.61;60.31;101792.19;10363127;28;20042;-67
2022/07/04 14:47:13;;;;;;;1.10;0.50;;;;;;;24.63;57.83;101784.25;10360110;28;20048;-68
2022/07/04 14:52:14;;;;;;;1.63;0.55;;;;;;;24.33;58.55;101781.16;10328297;28;20069;-68
2022/07/04 14:57:14;;;;;;;1.90;0.57;;;;;;;24.04;60.78;101786.50;10322968;28;20051;-68
2022/07/04 15:02:15;;;;;;;2.22;0.65;;;;;;;24.25;59.51;101786.78;10338266;28;20034;-68
2022/07/04 15:07:15;;;;;;;2.50;0.80;;;;;;;23.81;62.48;101803.41;10322633;28;20035;-65
2022/07/04 15:12:16;;;;;;;1.13;0.43;;;;;;;25.01;60.73;101783.59;10379033;28;20131;-67
2022/07/04 15:17:17;;;;;;;1.70;0.50;;;;;;;25.47;56.36;101770.03;10359453;28;20061;-67
2022/07/04 15:27:36;;;;;;;6.00;0.85;;;;;;;26.12;54.62;101753.91;10332629;28;20042;-68
2022/07/04 15:32:37;;;;;;;1.90;0.52;;;;;;;26.38;53.90;101777.19;10358815;28;20110;-69
2022/07/04 15:37:37;;;;;;;1.13;0.63;;;;;;;27.24;53.80;101776.13;10387948;28;20041;-69
2022/07/04 15:42:38;;;;;;;1.40;0.50;;;;;;;27.44;52.59;101775.28;10388413;28;20539;-69
2022/07/04 15:47:38;;;;;;;1.65;0.40;;;;;;;27.36;51.66;101779.00;10378773;28;20117;-69
2022/07/04 15:52:39;;;;;;;3.67;0.60;;;;;;;26.36;51.68;101788.00;10376641;28;20041;-67
2022/07/04 15:57:39;;;;;;;2.22;0.50;;;;;;;26.68;52.25;101777.19;10384984;28;20038;-69
2022/07/04 16:02:40;;;;;;;1.23;0.55;;;;;;;25.94;53.31;101778.56;10387950;28;20029;-69
2022/07/04 16:07:40;;;;;;;3.25;0.50;;;;;;;26.57;51.12;101773.94;10384002;28;20065;-69
2022/07/04 16:12:41;;;;;;;3.50;0.60;;;;;;;27.29;51.96;101778.75;10383068;28;20046;-69
2022/07/04 16:17:41;;;;;;;2.72;0.43;;;;;;;27.87;49.78;101765.50;10328760;28;20090;-69
2022/07/04 16:22:42;;;;;;;3.22;0.40;;;;;;;27.79;49.99;101774.91;10330838;28;20053;-69
2022/07/04 16:27:42;;;;;;;2.30;0.30;;;;;;;26.88;48.98;101757.81;10339699;28;20070;-67
2022/07/04 16:32:43;;;;;;;2.50;0.40;;;;;;;26.26;49.85;101760.16;10327707;28;20056;-70
2022/07/04 16:37:43;;;;;;;1.65;0.40;;;;;;;24.84;53.52;101777.97;10326619;28;20102;-69
2022/07/04 16:42:44;;;;;;;2.58;0.50;;;;;;;23.67;56.44;101782.97;10299857;28;20062;-69
2022/07/04 16:47:44;;;;;;;1.83;0.57;;;;;;;22.63;56.87;101791.34;10324969;28;20034;-68
2022/07/04 16:52:45;;;;;;;3.00;0.60;;;;;;;22.18;58.59;101803.19;10327202;28;20035;-69
2022/07/04 16:57:45;;;;;;;1.40;0.50;;;;;;;22.00;58.99;101804.09;10328265;28;20042;-68
2022/07/04 17:02:46;;;;;;;1.98;0.45;;;;;;;21.70;60.58;101814.72;10326510;28;20031;-66
2022/07/04 17:07:46;;;;;;;1.40;0.80;;;;;;;21.29;60.10;101809.75;10301215;28;20229;-68
2022/07/04 17:12:46;;;;;;;1.85;0.32;;;;;;;21.01;62.29;101814.41;10325011;28;20042;-68
2022/07/04 17:17:47;;;;;;;3.30;0.77;;;;;;;20.60;63.08;101820.53;10323106;28;20089;-68
2022/07/04 17:22:47;;;;;;;2.17;0.80;;;;;;;20.48;65.45;101834.91;10288912;28;20503;-68
2022/07/04 17:27:48;;;;;;;3.30;0.65;;;;;;;20.25;65.19;101811.41;10285412;28;20109;-67
2022/07/04 17:32:49;;;;;;;3.78;0.47;;;;;;;20.12;66.42;101826.94;10354990;28;20045;-68
2022/07/04 17:37:49;;;;;;;1.25;0.40;;;;;;;19.96;68.05;101835.47;10324632;28;20116;-67
2022/07/04 17:42:50;;;;;;;1.17;0.40;;;;;;;19.78;68.20;101819.44;10324319;28;20026;-68
2022/07/04 17:47:50;;;;;;;1.15;0.30;;;;;;;19.69;68.33;101829.56;10324664;28;20026;-68
2022/07/04 17:52:51;;;;;;;5.57;0.85;;;;;;;19.52;68.91;101833.59;10324899;28;20109;-65
2022/07/04 17:57:51;;;;;;;3.83;0.50;;;;;;;19.40;68.05;101823.94;10323961;28;20056;-68
2022/07/04 18:02:51;;;;;;;2.38;0.77;;;;;;;19.29;70.51;101834.34;10319240;28;20034;-68
2022/07/04 18:07:52;;;;;;;1.45;0.43;;;;;;;19.16;71.39;101833.03;10354272;28;20030;-65
2022/07/04 18:12:52;;;;;;;2.42;0.50;;;;;;;19.08;72.39;101842.00;10323310;28;20042;-68
2022/07/04 18:17:53;;;;;;;1.63;0.50;;;;;;;19.05;72.85;101837.84;10317261;28;20042;-70
2022/07/04 18:22:56;;;;;;;3.17;0.68;;;;;;;18.97;73.47;101841.25;10323189;28;20045;-69
2022/07/04 18:27:57;;;;;;;1.42;0.50;;;;;;;18.88;74.67;101843.81;10323596;28;20061;-68
2022/07/04 18:32:57;;;;;;;1.48;0.50;;;;;;;18.76;75.29;101854.44;10323960;28;20069;-68
2022/07/04 18:37:58;;;;;;;1.08;0.40;;;;;;;18.67;74.23;101845.81;10322298;28;20038;-69
2022/07/04 18:48:20;;;;;;;1.25;0.40;;;;;;;18.52;76.32;101859.81;10355859;28;20509;-69
2022/07/04 18:53:20;;;;;;;3.30;0.50;;;;;;;18.44;77.15;101869.63;10331105;28;20046;-68
2022/07/04 18:58:21;;;;;;;1.60;0.50;;;;;;;18.35;77.81;101874.09;10322455;28;20081;-68
2022/07/04 19:03:21;;;;;;;1.90;0.38;;;;;;;18.16;78.81;101879.44;10322216;28;20050;-69
2022/07/04 19:08:22;;;;;;;2.08;0.70;;;;;;;17.57;80.53;101814.00;10318910;28;20041;-68
2022/07/04 19:13:22;;;;;;;1.90;0.90;;;;;;;17.81;83.55;101896.97;10321020;28;20042;-68
2022/07/04 19:18:23;;;;;;;0.85;0.60;;;;;;;17.53;87.55;101894.47;10321991;28;20039;-69
2022/07/04 19:23:23;;;;;;;1.50;0.50;;;;;;;17.23;89.07;101886.03;10322386;28;20030;-69
2022/07/04 19:28:24;;;;;;;1.70;0.52;;;;;;;17.08;92.23;101900.75;10315293;28;20043;-70
2022/07/04 19:33:25;;;;;;;3.38;0.60;;;;;;;16.89;96.98;101915.16;10318432;28;20043;-69
2022/07/04 19:38:25;;;;;;;0.75;0.40;;;;;;;16.77;99.77;101922.03;10341387;28;20038;-70
2022/07/04 19:43:26;;;;;;;2.72;0.60;;;;;;;16.72;100.00;101920.88;10331587;28;20074;-69
2022/07/04 19:48:26;;;;;;;1.67;0.95;;;;;;;16.69;100.00;101928.91;10324108;28;20038;-68
2022/07/04 19:53:27;;;;;;;3.22;0.75;;;;;;;16.52;100.00;101879.06;10331162;28;20438;-69
2022/07/04 19:58:27;;;;;;;6.03;1.20;;;;;;;16.86;100.00;101931.53;10325353;28;20045;-69
2022/07/04 20:03:28;;;;;;;1.55;0.90;;;;;;;16.79;100.00;101936.50;10360552;28;20049;-70
2022/07/04 20:08:28;;;;;;;1.67;0.60;;;;;;;16.58;100.00;101936.38;10356351;28;20066;-69
2022/07/04 20:13:29;;;;;;;1.90;0.88;;;;;;;16.40;100.00;101939.59;10356369;28;20050;-71
2022/07/04 20:18:30;;;;;;;1.95;0.75;;;;;;;16.15;100.00;101943.84;10364577;28;20042;-66
2022/07/04 20:23:30;;;;;;;1.65;0.70;;;;;;;15.91;100.00;101960.88;10362658;28;20042;-66
2022/07/04 20:28:31;;;;;;;3.10;0.70;;;;;;;15.66;100.00;101955.03;10361648;28;20053;-66
2022/07/04 20:33:31;;;;;;;2.78;0.60;;;;;;;15.59;100.00;101965.53;10367620;28;20046;-67
2022/07/04 20:38:32;;;;;;;3.08;1.40;;;;;;;15.45;100.00;101971.47;10332941;28;20034;-67
2022/07/04 20:43:33;;;;;;;3.45;1.02;;;;;;;15.34;100.00;101969.69;10324462;28;20038;-65
2022/07/04 20:48:33;;;;;;;4.45;1.20;;;;;;;15.27;100.00;101971.81;10326666;28;20449;-66
2022/07/04 20:53:34;;;;;;;1.33;0.80;;;;;;;15.25;100.00;101972.06;10325299;28;20042;-67
2022/07/04 20:58:34;;;;;;;2.17;1.02;;;;;;;15.23;100.00;101976.22;10345002;28;20045;-68
2022/07/04 21:03:36;;;;;;;3.90;2.53;;;;;;;15.11;100.00;101979.97;10326196;28;20023;-66
2022/07/04 21:08:37;;;;;;;3.33;1.13;;;;;;;15.02;100.00;101984.28;10321889;28;20045;-67
2022/07/04 21:13:37;;;;;;;2.28;1.30;;;;;;;14.93;100.00;101989.44;10338297;28;20065;-67
2022/07/04 21:18:38;;;;;;;3.25;1.10;;;;;;;14.80;100.00;101987.03;10355465;28;20556;-66
2022/07/04 21:23:38;;;;;;;2.50;1.42;;;;;;;14.72;100.00;101995.78;10339496;28;20106;-66
2022/07/04 21:28:39;;;;;;;6.82;1.70;;;;;;;14.59;100.00;101999.72;10312736;28;20043;-67
2022/07/04 21:33:39;;;;;;;4.35;1.75;;;;;;;14.47;100.00;101994.28;10283344;28;20050;-66
2022/07/04 21:38:39;;;;;;;2.08;1.58;;;;;;;14.41;100.00;101997.22;10313180;28;20047;-66
2022/07/04 21:43:40;;;;;;;3.28;1.83;;;;;;;14.34;100.00;101997.38;10282932;28;20046;-66
2022/07/04 21:48:41;;;;;;;5.50;1.70;;;;;;;14.23;100.00;102007.47;10315734;28;20045;-66
2022/07/04 21:53:41;;;;;;;2.17;1.40;;;;;;;14.11;100.00;101990.06;10323565;28;20051;-66
2022/07/04 21:58:42;;;;;;;2.70;1.83;;;;;;;14.10;100.00;102007.78;10306464;28;20413;-66
2022/07/04 22:03:43;;;;;;;4.63;1.90;;;;;;;14.02;100.00;101997.13;10288392;28;20105;-66
2022/07/04 22:08:43;;;;;;;4.68;1.63;;;;;;;14.00;100.00;102004.84;10290661;28;20100;-67
2022/07/04 22:13:44;;;;;;;4.75;2.10;;;;;;;13.95;100.00;102010.28;10349331;28;20065;-66
2022/07/04 22:18:44;;;;;;;5.15;2.03;;;;;;;13.91;100.00;102005.25;10322097;28;20544;-65
2022/07/04 22:23:45;;;;;;;2.90;2.30;;;;;;;13.88;100.00;102014.03;10321590;28;20039;-65
2022/07/04 22:28:46;;;;;;;5.65;2.55;;;;;;;13.83;100.00;102016.72;10351486;28;20053;-66
2022/07/04 22:33:46;;;;;;;5.07;3.00;;;;;;;13.80;100.00;102019.16;10319915;28;20930;-66
2022/07/04 22:38:47;;;;;;;7.43;3.13;;;;;;;13.78;100.00;102024.91;10321299;28;20042;-66
2022/07/04 22:43:47;;;;;;;5.50;2.47;;;;;;;13.67;100.00;102004.53;10308694;28;20035;-66
2022/07/04 22:48:50;;;;;;;10.35;2.95;;;;;;;13.62;100.00;102017.41;10321228;28;20065;-66
2022/07/04 22:59:09;;;;;;;8.60;3.30;;;;;;;13.42;100.00;102024.22;10388980;28;20034;-66
2022/07/04 23:04:09;;;;;;;6.22;3.42;;;;;;;13.35;100.00;102023.50;10359494;28;20429;-66
2022/07/04 23:09:10;;;;;;;6.50;3.35;;;;;;;13.23;100.00;102023.53;10361734;28;20194;-66
2022/07/04 23:14:10;;;;;;;8.13;3.13;;;;;;;13.12;100.00;102014.19;10361570;28;20140;-66
2022/07/04 23:19:11;;;;;;;6.47;3.13;;;;;;;13.07;100.00;102022.34;10370648;28;20046;-66
2022/07/04 23:24:11;;;;;;;4.47;3.15;;;;;;;13.02;100.00;102027.78;10362264;28;20026;-66